Parker City, Indiana
Current Conditions -  °F | °C
As of 5:53 PM on Thursday 18 Dec 2014 (Local Time) from KMIE Reporting Station
Overcast Overcast  
Wind Chill: 20°   Ceiling: 1900
Heat Index: 27°   Visibility: 9mi
Dew Point: 21°   Wind: 6mph
Humidity: 78%   Direction: 290°WNW
Pressure: 30.21"   Gusts: NA
Location:  40.19°N, 85.2°W
Report Text: KMIE 182253Z 29005KT 9SM BKN019 OVC085 M03/M06 A3021 RMK AO2 SLP240 T10281061
Loading
Personal Weather Stations






























Interactive Weather Map New forecast layout! Learn more

10-Day Weather Forecast

Advertisements
Track Severe Weather on mobile